Time;durP1;ratioP1;P1;durP2;ratioP2;P2;SDS_P1;SDS_P2;PMS_P1;PMS_P2;Temp;Humidity;BMP_temperature;BMP_pressure;BME280_temperature;BME280_humidity;BME280_pressure;Samples;Min_cycle;Max_cycle;Signal;HPM_P1;HPM_P2
2022/07/30 00:01:39;;;;;;;11.13;5.85;;;16.40;99.90;;;;;;5019477;28;20049;-94
2022/07/30 00:04:04;;;;;;;18.52;6.22;;;16.30;99.90;;;;;;5013976;28;20038;-92
2022/07/30 00:06:31;;;;;;;11.15;6.20;;;16.30;99.90;;;;;;5027391;28;20058;-92
2022/07/30 00:08:57;;;;;;;11.05;5.45;;;16.20;99.90;;;;;;5001496;28;20028;-93
2022/07/30 00:11:23;;;;;;;10.73;6.07;;;16.20;99.90;;;;;;5008261;28;20037;-92
2022/07/30 00:13:48;;;;;;;11.52;6.15;;;16.20;99.90;;;;;;5015700;28;20030;-92
2022/07/30 00:16:14;;;;;;;9.18;7.15;;;16.20;99.90;;;;;;5012519;28;20053;-92
2022/07/30 00:18:40;;;;;;;9.63;6.40;;;16.10;99.90;;;;;;5002789;28;20040;-92
2022/07/30 00:21:06;;;;;;;12.75;6.53;;;16.10;99.90;;;;;;5000312;28;20050;-92
2022/07/30 00:23:31;;;;;;;11.60;5.82;;;16.10;99.90;;;;;;5027445;28;20034;-93
2022/07/30 00:25:57;;;;;;;10.68;6.45;;;16.00;99.90;;;;;;5017652;28;20030;-93
2022/07/30 00:28:22;;;;;;;12.10;7.40;;;16.00;99.90;;;;;;5003294;28;20034;-92
2022/07/30 00:30:48;;;;;;;9.40;6.57;;;15.90;99.90;;;;;;5022805;28;20037;-91
2022/07/30 00:33:14;;;;;;;12.52;7.75;;;15.90;99.90;;;;;;4998147;28;20056;-92
2022/07/30 00:35:39;;;;;;;12.30;7.93;;;15.80;99.90;;;;;;5001619;28;20029;-92
2022/07/30 00:38:05;;;;;;;13.80;8.13;;;15.70;99.90;;;;;;5006937;28;20029;-92
2022/07/30 00:40:30;;;;;;;10.40;7.80;;;15.70;99.90;;;;;;4997920;28;20112;-91
2022/07/30 00:42:56;;;;;;;13.82;8.15;;;15.70;99.90;;;;;;5018540;28;20036;-90
2022/07/30 00:45:22;;;;;;;15.25;7.38;;;15.70;99.90;;;;;;5015721;28;20129;-91
2022/07/30 00:47:48;;;;;;;13.88;8.27;;;15.60;99.90;;;;;;5004482;28;20473;-90
2022/07/30 00:50:14;;;;;;;15.15;7.20;;;15.60;99.90;;;;;;5014754;28;20029;-90
2022/07/30 00:52:40;;;;;;;12.10;7.80;;;15.60;99.90;;;;;;5051158;28;20025;-91
2022/07/30 00:55:08;;;;;;;14.55;7.93;;;15.60;99.90;;;;;;5012186;28;20082;-91
2022/07/30 00:57:34;;;;;;;12.77;7.72;;;15.50;99.90;;;;;;5014795;28;20029;-91
2022/07/30 00:59:59;;;;;;;13.15;7.28;;;15.50;99.90;;;;;;5026568;28;20104;-91
2022/07/30 01:02:25;;;;;;;15.13;8.63;;;15.50;99.90;;;;;;4995675;28;20022;-91
2022/07/30 01:04:51;;;;;;;18.90;9.07;;;15.40;99.90;;;;;;5006988;28;20448;-92
2022/07/30 01:07:16;;;;;;;16.67;9.75;;;15.40;99.90;;;;;;5010973;28;20056;-92
2022/07/30 01:09:42;;;;;;;15.38;9.45;;;15.30;99.90;;;;;;5000871;28;20393;-91
2022/07/30 01:12:09;;;;;;;13.95;8.70;;;15.30;99.90;;;;;;5000911;28;20034;-90
2022/07/30 01:14:36;;;;;;;11.88;7.53;;;15.20;99.90;;;;;;5017661;28;20486;-91
2022/07/30 01:17:03;;;;;;;12.68;7.72;;;15.20;99.90;;;;;;5023021;28;20504;-90
2022/07/30 01:19:51;;;;;;;17.00;8.23;;;15.20;99.90;;;;;;5034380;28;20543;-91
2022/07/30 01:22:27;;;;;;;10.00;7.38;;;15.10;99.90;;;;;;4979957;28;20078;-91
2022/07/30 01:25:19;;;;;;;13.85;8.27;;;15.00;99.90;;;;;;4969268;28;20186;-91
2022/07/30 01:27:52;;;;;;;17.85;8.65;;;15.00;99.90;;;;;;4986079;28;20076;-92
2022/07/30 01:30:24;;;;;;;10.88;7.47;;;15.00;99.90;;;;;;4987217;28;20030;-91
2022/07/30 01:32:53;;;;;;;11.40;8.02;;;14.90;99.90;;;;;;4985450;28;20029;-90
2022/07/30 01:35:20;;;;;;;13.95;8.90;;;14.90;99.90;;;;;;4996423;28;20030;-91
2022/07/30 01:37:48;;;;;;;14.05;9.40;;;14.90;99.90;;;;;;4978616;28;20022;-91
2022/07/30 01:40:14;;;;;;;18.25;10.55;;;14.90;99.90;;;;;;5018959;28;20037;-90
2022/07/30 01:42:41;;;;;;;15.27;9.68;;;14.80;99.90;;;;;;4990395;28;20034;-90
2022/07/30 01:45:08;;;;;;;12.00;8.68;;;14.80;99.90;;;;;;4978296;28;20035;-88
2022/07/30 01:47:35;;;;;;;13.05;8.55;;;14.80;99.90;;;;;;4985075;28;20033;-90
2022/07/30 01:50:03;;;;;;;13.88;9.15;;;14.80;99.90;;;;;;4980561;28;20140;-89
2022/07/30 01:52:31;;;;;;;10.35;8.07;;;14.70;99.90;;;;;;4995829;28;20487;-90
2022/07/30 01:54:59;;;;;;;16.25;7.90;;;14.70;99.90;;;;;;4974581;28;20035;-90
2022/07/30 01:57:25;;;;;;;12.95;6.97;;;14.70;99.90;;;;;;4959824;28;20022;-90
2022/07/30 01:59:56;;;;;;;12.48;7.07;;;14.70;99.90;;;;;;4968826;28;20026;-90
2022/07/30 02:02:22;;;;;;;12.17;7.20;;;14.70;99.90;;;;;;4988498;28;20386;-90
2022/07/30 02:04:48;;;;;;;12.27;7.25;;;14.60;99.90;;;;;;4961835;28;20034;-89
2022/07/30 02:07:23;;;;;;;13.68;8.05;;;14.60;99.90;;;;;;4983120;28;20065;-89
2022/07/30 02:09:54;;;;;;;13.05;8.02;;;14.50;99.90;;;;;;4996203;28;20018;-89
2022/07/30 02:12:29;;;;;;;11.60;7.68;;;14.60;99.90;;;;;;5002739;28;20023;-89
2022/07/30 02:15:28;;;;;;;12.40;7.88;;;14.50;99.90;;;;;;4964722;28;20491;-89
2022/07/30 02:18:15;;;;;;;11.70;6.40;;;14.50;99.90;;;;;;4968734;28;20034;-89
2022/07/30 02:20:45;;;;;;;10.90;6.97;;;14.50;99.90;;;;;;4977541;28;20053;-90
2022/07/30 02:23:13;;;;;;;11.60;7.78;;;14.40;99.90;;;;;;5012935;28;20080;-89
2022/07/30 02:25:46;;;;;;;12.23;7.25;;;14.40;99.90;;;;;;5014711;28;20026;-89
2022/07/30 02:28:14;;;;;;;13.05;7.70;;;14.40;99.90;;;;;;5007233;28;20027;-90
2022/07/30 02:30:49;;;;;;;11.85;7.30;;;14.30;99.90;;;;;;4983057;28;20060;-89
2022/07/30 02:33:17;;;;;;;10.57;7.68;;;14.30;99.90;;;;;;5010036;28;20053;-90
2022/07/30 02:35:44;;;;;;;13.38;8.38;;;14.30;99.90;;;;;;4997124;28;20029;-90
2022/07/30 02:38:13;;;;;;;10.63;7.90;;;14.20;99.90;;;;;;4995650;28;20528;-90
2022/07/30 02:40:40;;;;;;;12.50;8.10;;;14.30;99.90;;;;;;5013846;28;20026;-89
2022/07/30 02:43:06;;;;;;;16.48;8.52;;;14.20;99.90;;;;;;5022918;28;20027;-89
2022/07/30 02:45:33;;;;;;;9.95;7.65;;;14.20;99.90;;;;;;5017205;28;20026;-89
2022/07/30 02:48:08;;;;;;;11.10;7.22;;;14.20;99.90;;;;;;5014705;28;20025;-89
2022/07/30 02:50:35;;;;;;;15.13;9.30;;;14.20;99.90;;;;;;5004695;28;20028;-89
2022/07/30 02:53:02;;;;;;;9.00;6.40;;;14.20;99.90;;;;;;4995320;28;20042;-89
2022/07/30 02:55:31;;;;;;;11.60;7.82;;;14.20;99.90;;;;;;4991665;28;20045;-90
2022/07/30 02:57:57;;;;;;;12.23;7.68;;;14.20;99.90;;;;;;5028604;28;20604;-89
2022/07/30 03:00:24;;;;;;;8.98;7.20;;;14.20;99.90;;;;;;4998059;28;20084;-89
2022/07/30 03:02:55;;;;;;;8.90;7.00;;;14.30;99.90;;;;;;5011896;28;20512;-89
2022/07/30 03:05:21;;;;;;;8.43;6.68;;;14.20;99.90;;;;;;5029534;28;20036;-88
2022/07/30 03:07:48;;;;;;;9.93;6.97;;;14.20;99.90;;;;;;5022646;28;20485;-89
2022/07/30 03:10:14;;;;;;;15.57;7.35;;;14.20;99.90;;;;;;5003830;28;20026;-89
2022/07/30 03:12:43;;;;;;;11.25;7.15;;;14.20;99.90;;;;;;4998767;28;20026;-89
2022/07/30 03:15:09;;;;;;;11.60;7.60;;;14.20;99.90;;;;;;5014936;28;20030;-90
2022/07/30 03:17:41;;;;;;;11.25;8.07;;;14.10;99.90;;;;;;5003479;28;20022;-89
2022/07/30 03:20:09;;;;;;;12.82;8.20;;;14.10;99.90;;;;;;4986486;28;20054;-89
2022/07/30 03:22:42;;;;;;;11.77;8.73;;;14.10;99.90;;;;;;5005043;28;20030;-88
2022/07/30 03:25:09;;;;;;;14.13;8.77;;;14.10;99.90;;;;;;5029963;28;20504;-89
2022/07/30 03:27:37;;;;;;;14.20;8.23;;;14.00;99.90;;;;;;4995267;28;20084;-89
2022/07/30 03:30:04;;;;;;;13.25;8.35;;;14.00;99.90;;;;;;5008997;28;20029;-89
2022/07/30 03:32:30;;;;;;;12.85;7.75;;;14.00;99.90;;;;;;4995219;28;20057;-89
2022/07/30 03:34:57;;;;;;;9.30;6.20;;;14.00;99.90;;;;;;4976775;28;20037;-89
2022/07/30 03:37:24;;;;;;;10.07;6.28;;;13.90;99.90;;;;;;5000320;28;20494;-89
2022/07/30 03:39:50;;;;;;;8.90;6.68;;;13.90;99.90;;;;;;5013097;28;20041;-88
2022/07/30 03:42:16;;;;;;;8.65;6.93;;;13.90;99.90;;;;;;4995249;28;20026;-89
2022/07/30 03:44:44;;;;;;;12.38;6.90;;;13.90;99.90;;;;;;4980376;28;20034;-89
2022/07/30 03:47:10;;;;;;;10.82;8.05;;;13.80;99.90;;;;;;4988047;28;20053;-89
2022/07/30 03:49:36;;;;;;;16.17;8.77;;;13.80;99.90;;;;;;4992188;28;20038;-89
2022/07/30 03:52:03;;;;;;;11.20;8.77;;;13.80;99.90;;;;;;4996727;28;20034;-89
2022/07/30 03:54:32;;;;;;;11.18;8.32;;;13.70;99.90;;;;;;4992191;28;20080;-89
2022/07/30 03:57:02;;;;;;;12.63;8.15;;;13.70;99.90;;;;;;4984820;28;20077;-89
2022/07/30 03:59:29;;;;;;;11.75;7.85;;;13.70;99.90;;;;;;4990505;28;20194;-89
2022/07/30 04:02:00;;;;;;;10.27;7.25;;;13.70;99.90;;;;;;4991517;28;20068;-88
2022/07/30 04:04:26;;;;;;;13.75;7.13;;;13.60;99.90;;;;;;5011803;28;20044;-90
2022/07/30 04:06:51;;;;;;;14.23;7.22;;;13.60;99.90;;;;;;4980409;28;20023;-89
2022/07/30 04:09:17;;;;;;;13.45;7.90;;;13.60;99.90;;;;;;4995154;28;20512;-89
2022/07/30 04:11:42;;;;;;;11.23;7.47;;;13.50;99.90;;;;;;4983785;28;20466;-88
2022/07/30 04:14:08;;;;;;;8.45;6.93;;;13.60;99.90;;;;;;5004551;28;20059;-89
2022/07/30 04:16:52;;;;;;;12.93;8.95;;;13.50;99.90;;;;;;4995207;28;20116;-89
2022/07/30 04:19:29;;;;;;;14.50;9.15;;;13.60;99.90;;;;;;5028050;28;20049;-89
2022/07/30 04:21:57;;;;;;;14.50;9.18;;;13.50;99.90;;;;;;4990410;28;20035;-89
2022/07/30 04:24:24;;;;;;;17.05;9.73;;;13.50;99.90;;;;;;4991541;28;20394;-89
2022/07/30 04:26:51;;;;;;;12.82;10.27;;;13.50;99.90;;;;;;4983794;28;20025;-88
2022/07/30 04:29:17;;;;;;;13.73;9.50;;;13.50;99.90;;;;;;5028005;28;20029;-89
2022/07/30 04:31:43;;;;;;;15.10;9.05;;;13.60;99.90;;;;;;5010403;28;20057;-88
2022/07/30 04:34:12;;;;;;;14.20;9.80;;;13.60;99.90;;;;;;5006492;28;20054;-89
2022/07/30 04:36:39;;;;;;;13.80;9.80;;;13.60;99.90;;;;;;5004156;28;20045;-90
2022/07/30 04:39:04;;;;;;;15.30;11.50;;;13.60;99.90;;;;;;5010740;28;20116;-89
2022/07/30 04:41:30;;;;;;;16.00;9.60;;;13.60;99.90;;;;;;5014471;28;20057;-89
2022/07/30 04:43:55;;;;;;;18.02;10.65;;;13.70;99.90;;;;;;5027847;28;20485;-89
2022/07/30 04:46:21;;;;;;;13.82;11.27;;;13.70;99.90;;;;;;5008729;28;20105;-90
2022/07/30 04:48:47;;;;;;;16.30;11.25;;;13.70;99.90;;;;;;5004558;28;20053;-90
2022/07/30 04:51:28;;;;;;;19.35;12.18;;;13.80;99.90;;;;;;4991808;28;20018;-90
2022/07/30 04:53:57;;;;;;;21.63;13.07;;;13.80;99.90;;;;;;4994707;28;20116;-90
2022/07/30 04:56:24;;;;;;;19.45;13.38;;;13.80;99.90;;;;;;5005573;28;20025;-90
2022/07/30 04:58:51;;;;;;;21.55;14.55;;;13.90;99.90;;;;;;4997624;28;20133;-90
2022/07/30 05:01:26;;;;;;;19.95;14.20;;;14.00;99.90;;;;;;4994916;28;20037;-89
2022/07/30 05:03:52;;;;;;;18.52;13.35;;;14.10;99.90;;;;;;5003763;28;20050;-90
2022/07/30 05:06:19;;;;;;;24.27;14.45;;;14.10;99.90;;;;;;5012397;28;20486;-90
2022/07/30 05:08:45;;;;;;;19.30;14.20;;;14.20;99.90;;;;;;5001029;28;20037;-91
2022/07/30 05:11:12;;;;;;;23.05;15.80;;;14.30;99.90;;;;;;4983489;28;20026;-90
2022/07/30 05:13:43;;;;;;;20.40;15.15;;;14.30;99.90;;;;;;5013653;28;20030;-90
2022/07/30 05:16:10;;;;;;;20.77;14.50;;;14.30;99.90;;;;;;4990073;28;20030;-90
2022/07/30 05:18:36;;;;;;;27.30;16.17;;;14.40;99.90;;;;;;4995629;28;20029;-90
2022/07/30 05:21:02;;;;;;;21.58;14.95;;;14.50;99.90;;;;;;5016438;28;20050;-90
2022/07/30 05:23:28;;;;;;;29.55;16.30;;;14.60;99.90;;;;;;5001898;28;20041;-91
2022/07/30 05:25:53;;;;;;;25.27;17.30;;;14.60;99.90;;;;;;4994072;28;20088;-90
2022/07/30 05:28:19;;;;;;;26.70;18.73;;;14.80;99.90;;;;;;4994019;28;20120;-89
2022/07/30 05:30:44;;;;;;;22.52;16.92;;;14.90;99.90;;;;;;4995401;28;20022;-90
2022/07/30 05:33:10;;;;;;;22.77;15.07;;;15.20;99.90;;;;;;5004837;28;20152;-90
2022/07/30 05:35:35;;;;;;;19.65;13.57;;;15.60;99.90;;;;;;4997045;28;20032;-90
2022/07/30 05:38:01;;;;;;;21.40;14.13;;;15.90;99.90;;;;;;5000789;28;20030;-90
2022/07/30 05:40:26;;;;;;;18.08;11.90;;;16.40;99.90;;;;;;5007124;28;20034;-90
2022/07/30 05:42:52;;;;;;;17.63;12.25;;;16.70;99.90;;;;;;4995648;28;20092;-90
2022/07/30 05:45:17;;;;;;;15.98;12.20;;;17.00;99.90;;;;;;4998891;28;20091;-90
2022/07/30 05:47:43;;;;;;;13.57;11.73;;;17.20;99.90;;;;;;4990852;28;20545;-88
2022/07/30 05:50:09;;;;;;;19.77;13.40;;;17.30;99.90;;;;;;4992730;28;20057;-90
2022/07/30 05:52:34;;;;;;;24.92;13.57;;;17.30;99.90;;;;;;5014689;28;20081;-89
2022/07/30 05:55:00;;;;;;;17.92;13.82;;;17.40;99.90;;;;;;4990363;28;20093;-90
2022/07/30 05:57:25;;;;;;;17.70;13.63;;;17.40;99.90;;;;;;4987280;28;20022;-90
2022/07/30 05:59:51;;;;;;;20.23;14.02;;;17.40;99.90;;;;;;4997023;28;20478;-90
2022/07/30 06:02:17;;;;;;;18.55;13.98;;;17.50;99.90;;;;;;4996392;28;20509;-91
2022/07/30 06:04:42;;;;;;;18.67;14.25;;;17.50;99.90;;;;;;4979586;28;20444;-90
2022/07/30 06:07:08;;;;;;;19.83;14.70;;;17.50;99.90;;;;;;5019743;28;20037;-89
2022/07/30 06:09:33;;;;;;;19.08;14.27;;;17.50;99.90;;;;;;5014567;28;20049;-90
2022/07/30 06:11:59;;;;;;;16.48;13.45;;;17.50;99.90;;;;;;4988166;28;20386;-91
2022/07/30 06:14:24;;;;;;;23.10;14.55;;;17.50;99.90;;;;;;4991219;28;20118;-90
2022/07/30 06:16:50;;;;;;;17.65;13.40;;;17.40;99.90;;;;;;4998867;28;20112;-90
2022/07/30 06:19:15;;;;;;;22.70;13.48;;;17.40;99.90;;;;;;4999645;28;20460;-90
2022/07/30 06:21:41;;;;;;;21.33;13.38;;;17.40;99.90;;;;;;5029707;28;20037;-91
2022/07/30 06:24:07;;;;;;;17.27;12.80;;;17.40;99.90;;;;;;4997693;28;20887;-90
2022/07/30 06:26:33;;;;;;;19.35;12.65;;;17.50;99.90;;;;;;5012914;28;20043;-91
2022/07/30 06:28:58;;;;;;;20.58;12.65;;;17.50;99.90;;;;;;4992812;28;20497;-89
2022/07/30 06:31:24;;;;;;;18.75;12.68;;;17.50;99.90;;;;;;4985555;28;20130;-91
2022/07/30 06:33:49;;;;;;;16.73;12.02;;;17.60;99.90;;;;;;4992735;28;20029;-90
2022/07/30 06:36:15;;;;;;;17.27;12.93;;;17.60;99.90;;;;;;5014836;28;20026;-91
2022/07/30 06:38:40;;;;;;;15.43;11.73;;;17.70;99.90;;;;;;4994951;28;20397;-92
2022/07/30 06:41:06;;;;;;;15.00;11.05;;;17.80;99.90;;;;;;5019096;28;20030;-92
2022/07/30 06:43:32;;;;;;;15.32;10.90;;;17.80;99.90;;;;;;4991948;28;20401;-92
2022/07/30 06:45:58;;;;;;;14.98;10.32;;;17.80;99.90;;;;;;5007755;28;20052;-92
2022/07/30 06:48:23;;;;;;;14.90;10.07;;;17.90;99.90;;;;;;5008608;28;20492;-92
2022/07/30 06:50:49;;;;;;;15.38;10.35;;;18.10;99.90;;;;;;4996713;28;20026;-91
2022/07/30 06:53:14;;;;;;;11.77;10.15;;;18.30;99.90;;;;;;4996618;28;20156;-91
2022/07/30 06:55:40;;;;;;;13.52;10.68;;;18.30;99.90;;;;;;4999651;28;20022;-91
2022/07/30 06:58:07;;;;;;;14.45;10.30;;;18.40;99.90;;;;;;5007850;28;20501;-92
2022/07/30 07:00:32;;;;;;;12.75;10.57;;;18.40;99.90;;;;;;5012903;28;20033;-92
2022/07/30 07:02:58;;;;;;;10.85;9.70;;;18.50;99.90;;;;;;4996736;28;20026;-91
2022/07/30 07:05:27;;;;;;;13.65;10.23;;;18.50;99.90;;;;;;4999497;28;20317;-91
2022/07/30 07:07:53;;;;;;;12.63;9.25;;;18.60;99.90;;;;;;5023166;28;20025;-93
2022/07/30 07:10:19;;;;;;;10.65;6.70;;;18.80;99.90;;;;;;5012806;28;20112;-92
2022/07/30 07:12:45;;;;;;;6.95;3.70;;;19.00;99.90;;;;;;5005030;28;20025;-92
2022/07/30 07:15:11;;;;;;;7.93;2.63;;;19.10;99.90;;;;;;4994573;28;20029;-93
2022/07/30 07:17:37;;;;;;;10.73;2.58;;;19.20;99.90;;;;;;4985457;28;20029;-91
2022/07/30 07:20:03;;;;;;;6.10;2.25;;;19.30;99.90;;;;;;4985450;28;20053;-91
2022/07/30 07:22:29;;;;;;;6.68;2.30;;;19.30;99.90;;;;;;5007908;28;20044;-91
2022/07/30 07:24:55;;;;;;;7.65;2.78;;;19.40;99.90;;;;;;4992192;28;20467;-92
2022/07/30 07:27:20;;;;;;;7.07;2.70;;;19.50;99.90;;;;;;5031486;28;20021;-92
2022/07/30 07:29:46;;;;;;;7.72;2.53;;;19.70;99.90;;;;;;5017222;28;20053;-91
2022/07/30 07:32:11;;;;;;;4.97;1.95;;;19.90;99.90;;;;;;5001285;28;20049;-91
2022/07/30 07:34:37;;;;;;;12.30;4.45;;;20.00;99.90;;;;;;5025164;28;20448;-92
2022/07/30 07:37:03;;;;;;;5.70;2.85;;;20.20;99.90;;;;;;5003498;28;20025;-91
2022/07/30 07:39:29;;;;;;;5.57;2.88;;;20.40;99.90;;;;;;5008175;28;20026;-92
2022/07/30 07:41:54;;;;;;;7.43;2.75;;;20.50;99.90;;;;;;5007695;28;20080;-90
2022/07/30 07:44:20;;;;;;;6.13;2.80;;;20.40;99.90;;;;;;5001409;28;20468;-91
2022/07/30 07:46:46;;;;;;;11.70;2.70;;;20.20;99.90;;;;;;5019919;28;20095;-90
2022/07/30 07:49:11;;;;;;;8.15;2.90;;;20.00;99.90;;;;;;5002277;28;20033;-91
2022/07/30 07:51:37;;;;;;;4.65;2.67;;;19.90;99.90;;;;;;5013862;28;20025;-92
2022/07/30 07:54:03;;;;;;;5.35;2.20;;;19.90;99.90;;;;;;4995560;28;20129;-91
2022/07/30 07:56:28;;;;;;;7.43;2.47;;;20.10;99.90;;;;;;4994057;28;20026;-91
2022/07/30 07:58:54;;;;;;;7.00;2.20;;;20.30;99.90;;;;;;5011939;28;20025;-92
2022/07/30 08:01:20;;;;;;;7.18;2.78;;;20.40;99.90;;;;;;4996699;28;20022;-89
2022/07/30 08:03:46;;;;;;;6.97;2.63;;;20.50;99.90;;;;;;5011375;28;20046;-90
2022/07/30 08:06:12;;;;;;;5.82;3.17;;;20.70;99.90;;;;;;4978388;28;20030;-90
2022/07/30 08:08:37;;;;;;;6.22;2.50;;;20.90;99.90;;;;;;5000812;28;20585;-92
2022/07/30 08:11:04;;;;;;;5.07;2.05;;;20.90;99.90;;;;;;4984356;28;20106;-92
2022/07/30 08:13:30;;;;;;;5.65;1.52;;;20.90;99.90;;;;;;4987853;28;20026;-92
2022/07/30 08:15:55;;;;;;;4.72;1.52;;;20.90;99.90;;;;;;5006027;28;20492;-92
2022/07/30 08:18:21;;;;;;;6.50;2.17;;;20.90;99.90;;;;;;4993473;28;20054;-91
2022/07/30 08:20:48;;;;;;;10.27;3.13;;;20.90;99.90;;;;;;4996924;28;20046;-93
2022/07/30 08:23:14;;;;;;;6.50;2.50;;;21.00;99.90;;;;;;4999354;28;20441;-92
2022/07/30 08:25:39;;;;;;;5.13;2.45;;;21.20;99.90;;;;;;5000721;28;20030;-86
2022/07/30 08:28:06;;;;;;;7.97;2.65;;;21.20;99.90;;;;;;4999552;28;20022;-95
2022/07/30 08:30:32;;;;;;;5.20;2.65;;;21.30;99.90;;;;;;5036467;28;20496;-94
2022/07/30 08:32:57;;;;;;;4.82;2.38;;;21.30;99.90;;;;;;5005907;28;20022;-95
2022/07/30 08:35:23;;;;;;;4.22;2.50;;;21.30;99.90;;;;;;5007055;28;20508;-93
2022/07/30 08:37:49;;;;;;;3.88;1.98;;;21.40;99.40;;;;;;4994403;28;20022;-94
2022/07/30 08:40:18;;;;;;;8.15;2.97;;;21.30;98.80;;;;;;4997725;28;20026;-94
2022/07/30 08:42:44;;;;;;;3.78;2.33;;;21.30;98.80;;;;;;4987692;28;20097;-95
2022/07/30 08:45:11;;;;;;;5.85;3.25;;;21.30;98.60;;;;;;5003673;28;20056;-95
2022/07/30 08:47:40;;;;;;;6.40;2.65;;;21.30;98.50;;;;;;5007292;28;20113;-94
2022/07/30 08:50:07;;;;;;;6.50;2.53;;;21.50;98.50;;;;;;5028882;28;20125;-95
2022/07/30 08:52:35;;;;;;;7.13;3.55;;;21.70;98.60;;;;;;5027185;28;20499;-94
2022/07/30 08:55:03;;;;;;;4.93;2.47;;;21.90;98.10;;;;;;5030161;28;20044;-89
2022/07/30 08:57:30;;;;;;;5.72;2.83;;;21.90;97.70;;;;;;4990077;28;20112;-91
2022/07/30 08:59:57;;;;;;;5.38;2.67;;;22.00;97.40;;;;;;4996811;28;20038;-89
2022/07/30 09:02:23;;;;;;;4.35;2.33;;;22.00;97.10;;;;;;4998021;28;20078;-89
2022/07/30 09:04:49;;;;;;;6.97;2.33;;;21.90;96.80;;;;;;4995994;28;20037;-88
2022/07/30 09:07:15;;;;;;;4.53;2.33;;;21.90;96.40;;;;;;4989541;28;20049;-89
2022/07/30 09:09:40;;;;;;;5.80;2.30;;;21.90;96.40;;;;;;5000161;28;20062;-88
2022/07/30 09:12:43;;;;;;;3.53;2.20;;;22.00;96.20;;;;;;4995015;28;20478;-89
2022/07/30 09:15:18;;;;;;;3.03;2.15;;;22.10;95.90;;;;;;4950939;28;20079;-89
2022/07/30 09:17:53;;;;;;;4.70;2.13;;;22.20;95.60;;;;;;4983613;28;20110;-90
2022/07/30 09:20:21;;;;;;;9.75;3.03;;;22.20;95.50;;;;;;5011931;28;20050;-90
2022/07/30 09:23:13;;;;;;;5.38;2.47;;;22.20;95.70;;;;;;4994108;28;20061;-86
2022/07/30 09:25:41;;;;;;;6.85;2.38;;;22.20;95.80;;;;;;4997031;28;20057;-85
2022/07/30 09:28:09;;;;;;;5.55;1.83;;;22.30;95.40;;;;;;4989091;28;20088;-86
2022/07/30 09:30:47;;;;;;;4.82;1.95;;;22.30;95.00;;;;;;4984213;28;20022;-86
2022/07/30 09:33:13;;;;;;;6.10;2.20;;;22.20;94.80;;;;;;5000790;28;20444;-85
2022/07/30 09:35:40;;;;;;;3.95;1.92;;;22.20;94.90;;;;;;4994858;28;20014;-90
2022/07/30 09:38:07;;;;;;;5.63;1.55;;;22.30;94.70;;;;;;4997061;28;20033;-90
2022/07/30 09:40:33;;;;;;;4.35;1.45;;;22.30;94.50;;;;;;5001298;28;20049;-91
2022/07/30 09:43:06;;;;;;;4.28;1.52;;;22.50;94.10;;;;;;5015872;28;20441;-90
2022/07/30 09:45:32;;;;;;;4.93;1.20;;;22.50;93.80;;;;;;5004959;28;20021;-90
2022/07/30 09:47:58;;;;;;;6.07;1.67;;;22.40;93.90;;;;;;4997441;28;20026;-89
2022/07/30 09:50:25;;;;;;;3.92;1.25;;;22.50;93.70;;;;;;4997693;28;20025;-89
2022/07/30 09:52:52;;;;;;;6.55;1.27;;;22.50;93.80;;;;;;4996370;28;20048;-90
2022/07/30 09:55:33;;;;;;;6.70;1.30;;;22.50;93.80;;;;;;4995666;28;20114;-91
2022/07/30 09:58:06;;;;;;;4.35;1.10;;;22.60;93.60;;;;;;4990749;28;20083;-89
2022/07/30 10:00:34;;;;;;;5.75;1.40;;;22.70;93.50;;;;;;4997605;28;20117;-89
2022/07/30 10:03:00;;;;;;;3.08;1.02;;;22.80;92.90;;;;;;4991137;28;20030;-91
2022/07/30 10:05:26;;;;;;;3.58;0.88;;;22.80;92.40;;;;;;4996976;28;20120;-91
2022/07/30 10:07:55;;;;;;;2.95;0.70;;;22.80;92.70;;;;;;4996947;28;20162;-89
2022/07/30 10:10:24;;;;;;;3.90;0.80;;;22.90;92.70;;;;;;4996788;28;20048;-89
2022/07/30 10:12:53;;;;;;;3.58;0.70;;;23.00;92.20;;;;;;4995628;28;20404;-89
2022/07/30 10:15:20;;;;;;;3.47;0.90;;;23.00;91.80;;;;;;4996804;28;20052;-90
2022/07/30 10:17:47;;;;;;;3.72;0.70;;;23.00;91.80;;;;;;4995463;28;20022;-89
2022/07/30 10:20:13;;;;;;;2.67;0.93;;;23.20;91.50;;;;;;4996577;28;20054;-90
2022/07/30 10:22:41;;;;;;;5.75;1.30;;;23.30;91.50;;;;;;4990303;28;20434;-89
2022/07/30 10:25:07;;;;;;;4.95;1.02;;;23.30;91.40;;;;;;4992298;28;20038;-90
2022/07/30 10:27:33;;;;;;;2.80;1.25;;;23.40;91.30;;;;;;4992637;28;20030;-90
2022/07/30 10:30:00;;;;;;;2.88;0.85;;;23.40;90.90;;;;;;4999404;28;20420;-91
2022/07/30 10:32:26;;;;;;;2.70;0.85;;;23.30;91.00;;;;;;4994008;28;20030;-90
2022/07/30 10:34:52;;;;;;;2.70;0.70;;;23.30;91.10;;;;;;4993673;28;20031;-89
2022/07/30 10:37:19;;;;;;;3.40;0.85;;;23.30;91.50;;;;;;5022424;28;20018;-90
2022/07/30 10:39:52;;;;;;;3.92;0.70;;;23.40;91.40;;;;;;5020232;28;20030;-89
2022/07/30 10:42:56;;;;;;;4.13;0.70;;;23.50;91.10;;;;;;4985420;28;20076;-88
2022/07/30 10:45:31;;;;;;;3.28;0.68;;;23.60;90.70;;;;;;4957115;28;20049;-88
2022/07/30 10:47:58;;;;;;;3.42;0.82;;;23.70;90.60;;;;;;4994742;28;20053;-89
2022/07/30 10:50:25;;;;;;;1.88;0.55;;;23.80;90.30;;;;;;4994846;28;20030;-89
2022/07/30 10:52:57;;;;;;;3.28;0.63;;;23.90;90.30;;;;;;4993174;28;20026;-89
2022/07/30 10:55:25;;;;;;;3.28;0.60;;;24.00;90.00;;;;;;5027507;28;20034;-89
2022/07/30 10:58:08;;;;;;;2.15;0.60;;;24.20;89.20;;;;;;5021329;28;20030;-89
2022/07/30 11:00:41;;;;;;;3.83;0.70;;;24.30;87.70;;;;;;4986847;28;20034;-91
2022/07/30 11:03:25;;;;;;;3.08;0.40;;;24.30;86.90;;;;;;5003070;28;20111;-90
2022/07/30 11:06:13;;;;;;;4.60;0.70;;;24.30;86.40;;;;;;4989937;28;20038;-84
2022/07/30 11:08:40;;;;;;;2.83;0.50;;;24.30;85.40;;;;;;5020253;28;20022;-90
2022/07/30 11:11:21;;;;;;;1.15;0.40;;;24.30;85.00;;;;;;4994052;28;20061;-90
2022/07/30 11:13:50;;;;;;;2.97;0.43;;;24.40;85.50;;;;;;5020837;28;20026;-89
2022/07/30 11:16:19;;;;;;;3.35;0.50;;;24.50;85.30;;;;;;4995506;28;20018;-90
2022/07/30 11:19:05;;;;;;;3.47;0.55;;;24.50;84.40;;;;;;4994943;28;20037;-89
2022/07/30 11:21:31;;;;;;;4.65;0.50;;;24.70;84.10;;;;;;4994678;28;20438;-89
2022/07/30 11:23:58;;;;;;;4.10;0.88;;;24.80;83.80;;;;;;4990571;28;20034;-89
2022/07/30 11:26:42;;;;;;;3.38;0.73;;;24.80;82.80;;;;;;4990250;28;20054;-89
2022/07/30 11:29:38;;;;;;;1.83;0.40;;;24.90;82.60;;;;;;4997404;28;20536;-88
2022/07/30 11:32:22;;;;;;;2.90;0.55;;;25.00;82.00;;;;;;4999213;28;20036;-89
2022/07/30 11:34:49;;;;;;;1.77;0.50;;;25.00;81.40;;;;;;5021443;28;20113;-89
2022/07/30 11:37:16;;;;;;;3.55;0.52;;;25.10;81.50;;;;;;4982982;28;20037;-89
2022/07/30 11:39:56;;;;;;;3.40;0.50;;;25.30;80.40;;;;;;4988405;28;20067;-89
2022/07/30 11:42:27;;;;;;;12.30;2.45;;;25.50;80.30;;;;;;5004674;28;20124;-87
2022/07/30 11:45:13;;;;;;;1.60;0.40;;;25.60;79.70;;;;;;4991825;28;20493;-88
2022/07/30 11:47:38;;;;;;;4.10;0.50;;;25.80;78.90;;;;;;5025073;28;20128;-89
2022/07/30 11:50:05;;;;;;;1.48;0.50;;;25.70;78.10;;;;;;4994090;28;20125;-88
2022/07/30 11:52:31;;;;;;;4.35;0.40;;;25.60;78.40;;;;;;4993131;28;20092;-87
2022/07/30 11:54:57;;;;;;;3.97;0.40;;;25.70;78.80;;;;;;4994848;28;20030;-88
2022/07/30 11:57:41;;;;;;;2.20;0.30;;;25.70;78.40;;;;;;4993360;28;20026;-89
2022/07/30 12:00:07;;;;;;;2.78;0.38;;;25.80;77.70;;;;;;4993740;28;20046;-87
2022/07/30 12:02:33;;;;;;;2.17;0.50;;;25.80;78.20;;;;;;4989916;28;20122;-88
2022/07/30 12:04:58;;;;;;;2.47;0.93;;;25.90;78.00;;;;;;4998642;28;20485;-89
2022/07/30 12:07:24;;;;;;;1.45;0.40;;;25.90;77.70;;;;;;5002772;28;20041;-88
2022/07/30 12:09:49;;;;;;;1.60;0.40;;;25.90;77.70;;;;;;4994677;28;20026;-88
2022/07/30 12:12:26;;;;;;;3.88;0.50;;;26.10;77.40;;;;;;4992603;28;20057;-88
2022/07/30 12:14:51;;;;;;;2.70;0.50;;;26.10;76.30;;;;;;4983934;28;20026;-87
2022/07/30 12:17:17;;;;;;;4.60;0.50;;;26.00;75.40;;;;;;4992472;28;20018;-88
2022/07/30 12:19:46;;;;;;;2.10;0.40;;;25.90;76.10;;;;;;4995085;28;20077;-88
2022/07/30 12:22:12;;;;;;;2.10;0.40;;;26.00;75.90;;;;;;5022564;28;20113;-88
2022/07/30 12:24:37;;;;;;;3.22;0.40;;;26.30;75.30;;;;;;4997252;28;20030;-90
2022/07/30 12:27:07;;;;;;;1.75;0.40;;;26.50;73.90;;;;;;4997513;28;20150;-91
2022/07/30 12:29:36;;;;;;;5.68;0.65;;;26.40;73.40;;;;;;4993366;28;20030;-85
2022/07/30 12:32:02;;;;;;;3.75;0.47;;;26.40;73.20;;;;;;4995632;28;20032;-86
2022/07/30 12:34:28;;;;;;;1.23;0.40;;;26.40;72.50;;;;;;5001108;28;20036;-89
2022/07/30 12:36:54;;;;;;;2.15;0.40;;;26.10;72.60;;;;;;4993834;28;20030;-91
2022/07/30 12:39:23;;;;;;;4.60;0.40;;;26.10;72.80;;;;;;4995491;28;20026;-91
2022/07/30 12:41:50;;;;;;;1.67;0.40;;;26.00;72.20;;;;;;4996428;28;20046;-89
2022/07/30 12:44:36;;;;;;;2.38;0.50;;;26.00;72.50;;;;;;4996262;28;20048;-90
2022/07/30 12:47:03;;;;;;;1.30;0.32;;;26.00;72.30;;;;;;5027538;28;20034;-90